Terminal Aerodrome Forecast
Issued by NWS

Home | Current Version | Previous Version | Text Only | Print | Product List | Glossary On
Versions: 1 2 3 4 5 6 7 8 9 10 11 12 13
000
FTUS45 KRIW 222320
TAFBPI
TAF
KBPI 222320Z 2300/2324 24011KT P6SM VCTS SCT060CB BKN100
     FM230100 28016G26KT P6SM SCT090
     FM230200 31011KT P6SM FEW100
     FM231900 36012G20KT P6SM SKC=

USA.gov is the U.S. government's official web portal to all federal, state and local government web resources and services.